Bader, Illinois
Current Conditions -  °F | °C
As of 11:15 AM on Thursday 30 Oct 2014 (Local Time) from KIJX Reporting Station
Light Rain Light Rain  
Wind Chill: 52°   Ceiling: 8000
Heat Index: 52°   Visibility: 10mi
Dew Point: 40°   Wind: 8mph
Humidity: 65%   Direction: 160°SSE
Pressure: 30.11"   Gusts: NA
Location:  40.1574°N, 90.35°W
Report Text: KIJX 301615Z AUTO 16007KT 10SM -RA SCT065 BKN080 OVC090 11/05 A3011 RMK AO2 T01100047
Loading
Personal Weather Stations






























Interactive Weather Map
Tropical Storm Tracking
New forecast layout! Learn more

10-Day Weather Forecast

Advertisements
Track Severe Weather on mobile